createdAt,value
2017-10-14T00:00:41.394Z,0
2017-10-14T00:01:50.231Z,0
2017-10-14T00:02:59.076Z,0
2017-10-14T00:04:07.914Z,0
2017-10-14T00:05:16.759Z,0
2017-10-14T00:06:25.597Z,0
2017-10-14T00:07:34.439Z,0
2017-10-14T00:08:43.274Z,0
2017-10-14T00:09:52.117Z,0
2017-10-14T00:11:00.951Z,0
2017-10-14T00:12:09.792Z,0
2017-10-14T00:13:18.636Z,0
2017-10-14T00:14:27.489Z,0
2017-10-14T00:15:36.662Z,0
2017-10-14T00:16:45.508Z,0
2017-10-14T00:17:54.348Z,0
2017-10-14T00:19:03.523Z,0
2017-10-14T00:20:12.367Z,0
2017-10-14T00:21:21.206Z,0
2017-10-14T00:22:30.040Z,0
2017-10-14T00:23:38.883Z,0
2017-10-14T00:24:47.724Z,0
2017-10-14T00:25:56.565Z,0
2017-10-14T00:27:05.407Z,0
2017-10-14T00:28:14.582Z,0
2017-10-14T00:29:23.422Z,0
2017-10-14T00:30:32.264Z,0
2017-10-14T00:31:41.101Z,0
2017-10-14T00:32:49.944Z,0
2017-10-14T00:33:58.788Z,0
2017-10-14T00:35:07.622Z,0
2017-10-14T00:36:16.459Z,0
2017-10-14T00:37:25.305Z,0
2017-10-14T00:38:34.143Z,0
2017-10-14T00:39:43.008Z,0
2017-10-14T00:40:51.832Z,0
2017-10-14T00:42:00.667Z,0
2017-10-14T00:43:09.505Z,0
2017-10-14T00:44:18.342Z,0
2017-10-14T00:45:27.184Z,0
2017-10-14T00:46:36.030Z,0
2017-10-14T00:47:44.883Z,0
2017-10-14T00:48:53.709Z,0
2017-10-14T00:50:02.545Z,0
2017-10-14T00:51:11.392Z,0
2017-10-14T00:52:20.231Z,0
2017-10-14T00:53:29.077Z,0
2017-10-14T00:54:38.246Z,0
2017-10-14T00:55:47.085Z,0
2017-10-14T00:56:55.922Z,0
2017-10-14T00:58:04.769Z,0
2017-10-14T00:59:13.614Z,0
2017-10-14T01:00:22.455Z,0
2017-10-14T01:01:31.296Z,0
2017-10-14T01:02:40.135Z,0
2017-10-14T01:03:48.974Z,0
2017-10-14T01:04:57.825Z,0
2017-10-14T01:06:06.657Z,0
2017-10-14T01:07:15.494Z,0
2017-10-14T01:08:24.336Z,0
2017-10-14T01:09:33.190Z,0
2017-10-14T01:10:42.021Z,0
2017-10-14T01:11:50.865Z,0
2017-10-14T01:12:59.702Z,0
2017-10-14T01:14:08.539Z,0
2017-10-14T01:15:17.382Z,0
2017-10-14T01:16:26.225Z,0
2017-10-14T01:17:35.407Z,0
2017-10-14T01:18:44.246Z,0
2017-10-14T01:19:53.087Z,0
2017-10-14T01:21:01.934Z,0
2017-10-14T01:22:10.774Z,0
2017-10-14T01:23:19.626Z,0
2017-10-14T01:24:28.465Z,0
2017-10-14T01:25:37.306Z,0
2017-10-14T01:26:46.491Z,0
2017-10-14T01:27:55.331Z,0
2017-10-14T01:29:04.173Z,0
2017-10-14T01:30:13.023Z,0
2017-10-14T01:31:21.855Z,0
2017-10-14T01:32:30.697Z,0
2017-10-14T01:33:39.541Z,0
2017-10-14T01:34:48.385Z,0
2017-10-14T01:35:57.228Z,0
2017-10-14T01:37:06.072Z,0
2017-10-14T01:38:14.908Z,0
2017-10-14T01:39:23.753Z,0
2017-10-14T01:40:32.590Z,0
2017-10-14T01:41:41.434Z,0
2017-10-14T01:42:50.273Z,0
2017-10-14T01:43:59.110Z,0
2017-10-14T01:45:07.947Z,0
2017-10-14T01:46:16.788Z,0
2017-10-14T01:47:25.631Z,0
2017-10-14T01:48:34.472Z,0
2017-10-14T01:49:43.315Z,0
2017-10-14T01:50:52.154Z,0
2017-10-14T01:52:01.333Z,0
2017-10-14T01:53:10.171Z,0
2017-10-14T01:54:19.008Z,0
2017-10-14T01:55:28.190Z,0
2017-10-14T01:56:37.031Z,0
2017-10-14T01:57:45.880Z,0
2017-10-14T01:58:54.720Z,0
2017-10-14T02:00:03.560Z,0
2017-10-14T02:01:12.733Z,0
2017-10-14T02:02:21.573Z,0
2017-10-14T02:03:30.420Z,0
2017-10-14T02:04:39.258Z,0
2017-10-14T02:05:48.098Z,0
2017-10-14T02:06:56.937Z,0
2017-10-14T02:08:05.778Z,0
2017-10-14T02:09:14.621Z,0
2017-10-14T02:10:23.464Z,0
2017-10-14T02:11:32.303Z,0
2017-10-14T02:12:41.139Z,0
2017-10-14T02:13:49.982Z,0
2017-10-14T02:14:58.825Z,0
2017-10-14T02:16:07.670Z,0
2017-10-14T02:17:16.514Z,0
2017-10-14T02:18:25.353Z,0
2017-10-14T02:19:34.534Z,0
2017-10-14T02:20:43.375Z,0
2017-10-14T02:21:52.218Z,0
2017-10-14T02:23:01.394Z,0
2017-10-14T02:24:10.238Z,0
2017-10-14T02:25:19.075Z,0
2017-10-14T02:26:27.916Z,0
2017-10-14T02:27:37.100Z,0
2017-10-14T02:28:45.936Z,0
2017-10-14T02:29:54.774Z,0
2017-10-14T02:31:03.616Z,0
2017-10-14T02:32:12.461Z,0
2017-10-14T02:33:21.633Z,0
2017-10-14T02:34:30.481Z,0
2017-10-14T02:35:39.318Z,0
2017-10-14T02:36:48.158Z,0
2017-10-14T02:37:56.998Z,0
2017-10-14T02:39:05.839Z,0
2017-10-14T02:40:14.674Z,0
2017-10-14T02:41:23.522Z,0
2017-10-14T02:42:32.706Z,0
2017-10-14T02:43:41.546Z,0
2017-10-14T02:44:50.383Z,0
2017-10-14T02:45:59.219Z,0
2017-10-14T02:47:08.398Z,0
2017-10-14T02:48:17.237Z,0
2017-10-14T02:49:26.076Z,0
2017-10-14T02:50:34.917Z,0
2017-10-14T02:51:43.758Z,0
2017-10-14T02:52:52.599Z,0
2017-10-14T02:54:01.439Z,0
2017-10-14T02:55:10.282Z,0
2017-10-14T02:56:19.121Z,0
2017-10-14T02:57:27.962Z,0
2017-10-14T02:58:36.801Z,0
2017-10-14T02:59:45.643Z,0
2017-10-14T03:00:54.486Z,0
2017-10-14T03:02:03.319Z,0
2017-10-14T03:03:12.211Z,0
2017-10-14T03:04:21.050Z,0
2017-10-14T03:05:30.216Z,0
2017-10-14T03:06:39.058Z,0
2017-10-14T03:07:47.978Z,0
2017-10-14T03:08:57.341Z,0
2017-10-14T03:10:06.178Z,0
2017-10-14T03:11:15.020Z,0
2017-10-14T03:12:23.859Z,0
2017-10-14T03:13:33.297Z,0
2017-10-14T03:14:42.321Z,0
2017-10-14T03:15:51.938Z,0
2017-10-14T03:17:01.044Z,0
2017-10-14T03:18:10.101Z,0
2017-10-14T03:19:19.792Z,0
2017-10-14T03:20:28.816Z,0
2017-10-14T03:21:37.656Z,0
2017-10-14T03:22:46.497Z,0
2017-10-14T03:23:55.674Z,0
2017-10-14T03:25:04.510Z,0
2017-10-14T03:26:13.426Z,0
2017-10-14T03:27:22.299Z,0
2017-10-14T03:28:31.311Z,0
2017-10-14T03:29:40.309Z,0
2017-10-14T03:30:49.332Z,0
2017-10-14T03:31:58.236Z,0
2017-10-14T03:33:07.547Z,0
2017-10-14T03:34:16.385Z,0
2017-10-14T03:35:25.436Z,0
2017-10-14T03:36:34.278Z,0
2017-10-14T03:37:43.630Z,0
2017-10-14T03:38:52.745Z,0
2017-10-14T03:40:02.015Z,0
2017-10-14T03:41:11.076Z,0
2017-10-14T03:42:20.309Z,0
2017-10-14T03:43:29.534Z,0
2017-10-14T03:44:38.837Z,0
2017-10-14T03:45:47.672Z,0
2017-10-14T03:46:56.511Z,0
2017-10-14T03:48:05.377Z,0
2017-10-14T03:49:14.218Z,0
2017-10-14T03:50:23.450Z,0
2017-10-14T03:51:32.289Z,0
2017-10-14T03:52:41.128Z,0
2017-10-14T03:53:49.973Z,0
2017-10-14T03:54:58.815Z,0
2017-10-14T03:56:07.654Z,0
2017-10-14T03:57:16.498Z,0
2017-10-14T03:58:25.334Z,0
2017-10-14T03:59:34.177Z,0
2017-10-14T04:00:43.020Z,0
2017-10-14T04:01:51.858Z,0
2017-10-14T04:03:01.031Z,0
2017-10-14T04:04:09.872Z,0
2017-10-14T04:05:18.712Z,0
2017-10-14T04:06:27.557Z,0
2017-10-14T04:07:36.397Z,0
2017-10-14T04:08:45.232Z,0
2017-10-14T04:09:54.069Z,0
2017-10-14T04:11:02.915Z,0
2017-10-14T04:12:11.748Z,0
2017-10-14T04:13:20.947Z,0
2017-10-14T04:14:29.774Z,0
2017-10-14T04:15:38.606Z,0
2017-10-14T04:16:47.789Z,0
2017-10-14T04:17:56.632Z,0
2017-10-14T04:19:05.474Z,0
2017-10-14T04:20:14.318Z,0
2017-10-14T04:21:23.150Z,0
2017-10-14T04:22:31.992Z,0
2017-10-14T04:23:40.832Z,0
2017-10-14T04:24:49.672Z,0
2017-10-14T04:25:58.510Z,0
2017-10-14T04:27:07.352Z,0
2017-10-14T04:28:16.198Z,0
2017-10-14T04:29:25.039Z,0
2017-10-14T04:30:33.872Z,0
2017-10-14T04:31:42.720Z,0
2017-10-14T04:32:51.900Z,0
2017-10-14T04:34:00.743Z,0
2017-10-14T04:35:09.581Z,0
2017-10-14T04:36:18.416Z,0
2017-10-14T04:37:27.257Z,0
2017-10-14T04:38:36.436Z,0
2017-10-14T04:39:45.282Z,0
2017-10-14T04:40:54.121Z,0
2017-10-14T04:42:02.966Z,0
2017-10-14T04:43:11.805Z,0
2017-10-14T04:44:20.644Z,0
2017-10-14T04:45:29.489Z,0
2017-10-14T04:46:38.329Z,0
2017-10-14T04:47:47.165Z,0
2017-10-14T04:48:56.006Z,0
2017-10-14T04:50:04.847Z,0
2017-10-14T04:51:13.686Z,0
2017-10-14T04:52:22.526Z,0
2017-10-14T04:53:31.365Z,0
2017-10-14T04:54:40.203Z,0
2017-10-14T04:55:49.048Z,0
2017-10-14T04:56:57.884Z,0
2017-10-14T04:58:06.725Z,0
2017-10-14T04:59:15.565Z,0
2017-10-14T05:00:24.411Z,0
2017-10-14T05:01:33.254Z,0
2017-10-14T05:02:42.093Z,0
2017-10-14T05:03:50.933Z,0
2017-10-14T05:04:59.771Z,0
2017-10-14T05:06:08.615Z,0
2017-10-14T05:07:17.456Z,0
2017-10-14T05:08:26.636Z,0
2017-10-14T05:09:35.472Z,0
2017-10-14T05:10:44.312Z,4
2017-10-14T05:11:53.151Z,0
2017-10-14T05:13:01.996Z,4
2017-10-14T05:14:10.842Z,4
2017-10-14T05:15:20.009Z,4
2017-10-14T05:16:29.192Z,4
2017-10-14T05:17:38.033Z,4
2017-10-14T05:18:46.873Z,4
2017-10-14T05:19:55.719Z,8
2017-10-14T05:21:04.560Z,8
2017-10-14T05:22:13.399Z,8
2017-10-14T05:23:22.233Z,8
2017-10-14T05:24:31.078Z,8
2017-10-14T05:25:39.916Z,8
2017-10-14T05:26:48.761Z,8
2017-10-14T05:27:57.604Z,8
2017-10-14T05:29:06.439Z,8
2017-10-14T05:30:15.623Z,8
2017-10-14T05:31:24.464Z,12
2017-10-14T05:32:33.302Z,8
2017-10-14T05:33:42.143Z,8
2017-10-14T05:34:50.984Z,12
2017-10-14T05:35:59.823Z,12
2017-10-14T05:37:08.666Z,16
2017-10-14T05:38:17.515Z,16
2017-10-14T05:39:26.351Z,20
2017-10-14T05:40:35.187Z,20
2017-10-14T05:41:44.029Z,20
2017-10-14T05:42:53.215Z,16
2017-10-14T05:44:02.396Z,20
2017-10-14T05:45:11.569Z,20
2017-10-14T05:46:20.406Z,24
2017-10-14T05:47:29.259Z,20
2017-10-14T05:48:38.088Z,24
2017-10-14T05:49:46.931Z,28
2017-10-14T05:50:55.774Z,24
2017-10-14T05:52:04.609Z,28
2017-10-14T05:53:13.446Z,28
2017-10-14T05:54:22.294Z,36
2017-10-14T05:55:31.126Z,32
2017-10-14T05:56:39.973Z,36
2017-10-14T05:57:48.811Z,36
2017-10-14T05:58:57.651Z,40
2017-10-14T06:00:06.497Z,40
2017-10-14T06:01:15.337Z,36
2017-10-14T06:02:24.177Z,36
2017-10-14T06:03:33.021Z,44
2017-10-14T06:04:41.862Z,40
2017-10-14T06:05:50.697Z,40
2017-10-14T06:06:59.540Z,40
2017-10-14T06:08:08.382Z,44
2017-10-14T06:09:17.227Z,44
2017-10-14T06:10:26.065Z,44
2017-10-14T06:11:34.908Z,44
2017-10-14T06:12:43.770Z,48
2017-10-14T06:13:52.932Z,44
2017-10-14T06:15:01.774Z,52
2017-10-14T06:16:10.613Z,56
2017-10-14T06:17:19.458Z,64
2017-10-14T06:18:28.301Z,68
2017-10-14T06:19:37.141Z,72
2017-10-14T06:20:45.982Z,80
2017-10-14T06:21:55.160Z,80
2017-10-14T06:23:04.004Z,92
2017-10-14T06:24:12.845Z,96
2017-10-14T06:25:21.688Z,92
2017-10-14T06:26:30.539Z,96
2017-10-14T06:27:39.375Z,96
2017-10-14T06:28:48.206Z,96
2017-10-14T06:29:57.047Z,104
2017-10-14T06:31:05.887Z,128
2017-10-14T06:32:14.727Z,128
2017-10-14T06:33:23.572Z,140
2017-10-14T06:34:32.751Z,132
2017-10-14T06:35:41.806Z,132
2017-10-14T06:36:50.695Z,152
2017-10-14T06:37:59.533Z,164
2017-10-14T06:39:08.374Z,180
2017-10-14T06:40:17.217Z,212
2017-10-14T06:41:26.058Z,232
2017-10-14T06:42:34.966Z,252
2017-10-14T06:43:43.806Z,280
2017-10-14T06:44:52.996Z,356
2017-10-14T06:46:01.881Z,436
2017-10-14T06:47:10.721Z,444
2017-10-14T06:48:19.559Z,400
2017-10-14T06:49:28.413Z,436
2017-10-14T06:50:37.257Z,432
2017-10-14T06:51:46.098Z,432
2017-10-14T06:52:54.936Z,404
2017-10-14T06:54:03.780Z,416
2017-10-14T06:55:12.616Z,456
2017-10-14T06:56:21.458Z,428
2017-10-14T06:57:30.301Z,496
2017-10-14T06:58:39.143Z,536
2017-10-14T06:59:47.983Z,516
2017-10-14T07:00:56.822Z,484
2017-10-14T07:02:05.665Z,492
2017-10-14T07:03:14.509Z,520
2017-10-14T07:04:23.353Z,576
2017-10-14T07:05:32.188Z,572
2017-10-14T07:06:41.026Z,548
2017-10-14T07:07:49.870Z,524
2017-10-14T07:08:58.713Z,520
2017-10-14T07:10:07.557Z,568
2017-10-14T07:11:16.731Z,508
2017-10-14T07:12:25.578Z,532
2017-10-14T07:13:34.416Z,604
2017-10-14T07:14:43.258Z,596
2017-10-14T07:15:52.099Z,604
2017-10-14T07:17:00.938Z,628
2017-10-14T07:18:10.120Z,708
2017-10-14T07:19:18.962Z,712
2017-10-14T07:20:27.804Z,860
2017-10-14T07:21:36.982Z,780
2017-10-14T07:22:45.823Z,700
2017-10-14T07:23:54.669Z,572
2017-10-14T07:25:03.511Z,596
2017-10-14T07:26:12.350Z,668
2017-10-14T07:27:21.193Z,856
2017-10-14T07:28:30.037Z,696
2017-10-14T07:29:38.879Z,832
2017-10-14T07:30:47.722Z,748
2017-10-14T07:31:56.560Z,788
2017-10-14T07:33:05.406Z,628
2017-10-14T07:34:14.247Z,716
2017-10-14T07:35:23.427Z,696
2017-10-14T07:36:32.268Z,676
2017-10-14T07:37:41.113Z,592
2017-10-14T07:38:50.291Z,612
2017-10-14T07:39:59.133Z,664
2017-10-14T07:41:07.976Z,776
2017-10-14T07:42:16.818Z,972
2017-10-14T07:43:25.652Z,892
2017-10-14T07:44:34.501Z,1056
2017-10-14T07:45:43.338Z,1188
2017-10-14T07:46:52.185Z,1020
2017-10-14T07:48:01.028Z,1132
2017-10-14T07:49:09.870Z,1112
2017-10-14T07:50:18.723Z,952
2017-10-14T07:51:27.549Z,812
2017-10-14T07:52:36.389Z,1228
2017-10-14T07:53:45.234Z,1528
2017-10-14T07:54:54.077Z,2020
2017-10-14T07:56:02.916Z,2012
2017-10-14T07:57:11.761Z,1492
2017-10-14T07:58:20.602Z,1316
2017-10-14T07:59:29.447Z,996
2017-10-14T08:00:38.304Z,1160
2017-10-14T08:01:47.129Z,1540
2017-10-14T08:02:55.970Z,1588
2017-10-14T08:04:04.815Z,1208
2017-10-14T08:05:14.000Z,1144
2017-10-14T08:06:22.835Z,1284
2017-10-14T08:07:31.686Z,1460
2017-10-14T08:08:40.862Z,1392
2017-10-14T08:09:49.702Z,1612
2017-10-14T08:10:58.543Z,1696
2017-10-14T08:12:07.378Z,1488
2017-10-14T08:13:16.226Z,1520
2017-10-14T08:14:25.061Z,1568
2017-10-14T08:15:33.908Z,1816
2017-10-14T08:16:42.751Z,1824
2017-10-14T08:17:51.926Z,1740
2017-10-14T08:19:00.767Z,1944
2017-10-14T08:20:09.608Z,1916
2017-10-14T08:21:18.451Z,1728
2017-10-14T08:22:27.295Z,1540
2017-10-14T08:23:36.137Z,1712
2017-10-14T08:24:44.983Z,1376
2017-10-14T08:25:53.831Z,1676
2017-10-14T08:27:02.668Z,1400
2017-10-14T08:28:11.507Z,956
2017-10-14T08:29:20.353Z,960
2017-10-14T08:30:29.198Z,972
2017-10-14T08:31:38.036Z,1088
2017-10-14T08:32:46.878Z,1532
2017-10-14T08:33:55.721Z,1332
2017-10-14T08:35:04.566Z,1192
2017-10-14T08:36:13.408Z,1224
2017-10-14T08:37:22.246Z,1344
2017-10-14T08:38:31.093Z,1196
2017-10-14T08:39:39.936Z,1104
2017-10-14T08:40:48.778Z,884
2017-10-14T08:41:57.620Z,708
2017-10-14T08:43:06.459Z,636
2017-10-14T08:44:15.307Z,640
2017-10-14T08:45:24.142Z,600
2017-10-14T08:46:32.988Z,656
2017-10-14T08:47:41.831Z,604
2017-10-14T08:48:50.673Z,636
2017-10-14T08:49:59.518Z,616
2017-10-14T08:51:08.358Z,612
2017-10-14T08:52:17.203Z,628
2017-10-14T08:53:26.043Z,676
2017-10-14T08:54:34.894Z,720
2017-10-14T08:55:43.729Z,696
2017-10-14T08:56:52.568Z,792
2017-10-14T08:58:01.415Z,868
2017-10-14T08:59:10.261Z,820
2017-10-14T09:00:19.111Z,756
2017-10-14T09:01:27.950Z,784
2017-10-14T09:02:36.812Z,788
2017-10-14T09:03:45.652Z,844
2017-10-14T09:04:54.499Z,1040
2017-10-14T09:06:03.339Z,1264
2017-10-14T09:07:12.199Z,1108
2017-10-14T09:08:21.040Z,1136
2017-10-14T09:09:29.883Z,1012
2017-10-14T09:10:38.727Z,864
2017-10-14T09:11:47.578Z,812
2017-10-14T09:12:56.415Z,792
2017-10-14T09:14:05.259Z,852
2017-10-14T09:15:14.439Z,904
2017-10-14T09:16:23.279Z,1036
2017-10-14T09:17:32.123Z,1112
2017-10-14T09:18:40.972Z,1072
2017-10-14T09:19:50.468Z,808
2017-10-14T09:20:59.964Z,780
2017-10-14T09:22:09.192Z,804
2017-10-14T09:23:18.034Z,884
2017-10-14T09:24:26.874Z,956
2017-10-14T09:25:35.819Z,972
2017-10-14T09:26:44.684Z,1060
2017-10-14T09:27:53.525Z,1004
2017-10-14T09:29:02.370Z,1008
2017-10-14T09:30:11.544Z,944
2017-10-14T09:31:21.062Z,808
2017-10-14T09:32:30.004Z,800
2017-10-14T09:33:39.755Z,808
2017-10-14T09:34:48.797Z,832
2017-10-14T09:35:57.666Z,748
2017-10-14T09:37:06.509Z,668
2017-10-14T09:38:15.354Z,636
2017-10-14T09:39:24.199Z,624
2017-10-14T09:40:33.041Z,612
2017-10-14T09:41:41.896Z,768
2017-10-14T09:42:50.732Z,808
2017-10-14T09:43:59.618Z,1028
2017-10-14T09:45:08.890Z,1356
2017-10-14T09:46:17.815Z,1596
2017-10-14T09:47:26.740Z,1424
2017-10-14T09:48:35.735Z,1504
2017-10-14T09:49:45.410Z,1472
2017-10-14T09:50:54.335Z,1508
2017-10-14T09:52:03.281Z,1180
2017-10-14T09:53:12.199Z,1236
2017-10-14T09:54:21.122Z,1220
2017-10-14T09:55:30.437Z,1184
2017-10-14T09:56:39.355Z,1128
2017-10-14T09:57:48.207Z,1372
2017-10-14T09:58:57.052Z,1172
2017-10-14T10:00:05.889Z,1180
2017-10-14T10:01:14.729Z,1164
2017-10-14T10:02:23.575Z,1156
2017-10-14T10:03:32.417Z,1076
2017-10-14T10:04:41.259Z,968
2017-10-14T10:05:50.102Z,1180
2017-10-14T10:06:58.946Z,996
2017-10-14T10:08:07.789Z,1064
2017-10-14T10:09:16.630Z,940
2017-10-14T10:10:25.811Z,1060
2017-10-14T10:11:34.658Z,916
2017-10-14T10:12:43.500Z,920
2017-10-14T10:13:52.348Z,940
2017-10-14T10:15:01.188Z,956
2017-10-14T10:16:10.034Z,1088
2017-10-14T10:17:18.875Z,1128
2017-10-14T10:18:27.719Z,920
2017-10-14T10:19:36.561Z,1176
2017-10-14T10:20:45.409Z,1152
2017-10-14T10:21:54.253Z,1232
2017-10-14T10:23:03.095Z,1184
2017-10-14T10:24:11.931Z,928
2017-10-14T10:25:20.778Z,960
2017-10-14T10:26:29.625Z,932
2017-10-14T10:27:38.463Z,936
2017-10-14T10:28:47.312Z,968
2017-10-14T10:29:56.154Z,832
2017-10-14T10:31:04.994Z,904
2017-10-14T10:32:13.840Z,832
2017-10-14T10:33:22.676Z,796
2017-10-14T10:34:31.526Z,840
2017-10-14T10:35:40.377Z,836
2017-10-14T10:36:49.213Z,868
2017-10-14T10:37:58.052Z,932
2017-10-14T10:39:06.902Z,952
2017-10-14T10:40:15.761Z,956
2017-10-14T10:41:24.611Z,896
2017-10-14T10:42:33.444Z,824
2017-10-14T10:43:42.285Z,932
2017-10-14T10:44:51.130Z,1008
2017-10-14T10:45:59.976Z,1008
2017-10-14T10:47:08.833Z,952
2017-10-14T10:48:17.692Z,1016
2017-10-14T10:49:26.579Z,1032
2017-10-14T10:50:35.444Z,1012
2017-10-14T10:51:44.319Z,1012
2017-10-14T10:52:53.179Z,952
2017-10-14T10:54:02.052Z,908
2017-10-14T10:55:10.914Z,964
2017-10-14T10:56:19.798Z,988
2017-10-14T10:57:28.671Z,972
2017-10-14T10:58:37.543Z,904
2017-10-14T10:59:46.406Z,960
2017-10-14T11:00:55.272Z,992
2017-10-14T11:02:04.133Z,928
2017-10-14T11:03:13.002Z,1008
2017-10-14T11:04:21.877Z,1148
2017-10-14T11:05:30.749Z,888
2017-10-14T11:06:39.607Z,1016
2017-10-14T11:07:48.473Z,1048
2017-10-14T11:08:57.334Z,1028
2017-10-14T11:10:06.196Z,960
2017-10-14T11:11:15.055Z,1044
2017-10-14T11:12:23.927Z,796
2017-10-14T11:13:32.803Z,688
2017-10-14T11:14:41.659Z,636
2017-10-14T11:15:50.505Z,692
2017-10-14T11:16:59.345Z,736
2017-10-14T11:18:08.189Z,660
2017-10-14T11:19:17.031Z,612
2017-10-14T11:20:26.252Z,656
2017-10-14T11:21:35.143Z,908
2017-10-14T11:22:44.092Z,940
2017-10-14T11:23:52.939Z,1116
2017-10-14T11:25:01.782Z,972
2017-10-14T11:26:10.629Z,1052
2017-10-14T11:27:19.469Z,1180
2017-10-14T11:28:28.310Z,1236
2017-10-14T11:29:37.152Z,1120
2017-10-14T11:30:46.000Z,1084
2017-10-14T11:31:54.841Z,1124
2017-10-14T11:33:04.029Z,1248
2017-10-14T11:34:12.869Z,1076
2017-10-14T11:35:21.711Z,1016
2017-10-14T11:36:30.558Z,844
2017-10-14T11:37:39.399Z,800
2017-10-14T11:38:48.239Z,916
2017-10-14T11:39:57.086Z,976
2017-10-14T11:41:05.930Z,832
2017-10-14T11:42:14.775Z,828
2017-10-14T11:43:23.623Z,900
2017-10-14T11:44:32.465Z,816
2017-10-14T11:45:41.301Z,1024
2017-10-14T11:46:50.151Z,892
2017-10-14T11:47:58.991Z,852
2017-10-14T11:49:07.839Z,848
2017-10-14T11:50:16.679Z,836
2017-10-14T11:51:25.863Z,788
2017-10-14T11:52:34.704Z,784
2017-10-14T11:53:43.884Z,824
2017-10-14T11:54:52.727Z,900
2017-10-14T11:56:01.571Z,824
2017-10-14T11:57:10.415Z,864
2017-10-14T11:58:19.259Z,864
2017-10-14T11:59:28.099Z,1060
2017-10-14T12:00:36.973Z,1020
2017-10-14T12:01:45.815Z,896
2017-10-14T12:02:54.997Z,784
2017-10-14T12:04:03.838Z,908
2017-10-14T12:05:12.686Z,784
2017-10-14T12:06:21.531Z,904
2017-10-14T12:07:30.375Z,876
2017-10-14T12:08:39.218Z,912
2017-10-14T12:09:48.061Z,1176
2017-10-14T12:10:56.907Z,1512
2017-10-14T12:12:05.760Z,1380
2017-10-14T12:13:14.602Z,1344
2017-10-14T12:14:23.852Z,1676
2017-10-14T12:15:32.787Z,1440
2017-10-14T12:16:42.038Z,1392
2017-10-14T12:17:51.005Z,1504
2017-10-14T12:18:59.989Z,1672
2017-10-14T12:20:08.939Z,1696
2017-10-14T12:21:17.885Z,1568
2017-10-14T12:22:26.804Z,1560
2017-10-14T12:23:35.922Z,1352
2017-10-14T12:24:45.080Z,1448
2017-10-14T12:25:54.212Z,1256
2017-10-14T12:27:03.172Z,1200
2017-10-14T12:28:12.223Z,1248
2017-10-14T12:29:21.113Z,1220
2017-10-14T12:30:30.349Z,1236
2017-10-14T12:31:39.343Z,1280
2017-10-14T12:32:48.891Z,1172
2017-10-14T12:33:57.997Z,1284
2017-10-14T12:35:06.908Z,1088
2017-10-14T12:36:15.783Z,1332
2017-10-14T12:37:24.648Z,1252
2017-10-14T12:38:33.596Z,1404
2017-10-14T12:39:42.513Z,1272
2017-10-14T12:40:51.434Z,1040
2017-10-14T12:42:00.402Z,1120
2017-10-14T12:43:09.327Z,852
2017-10-14T12:44:18.461Z,1012
2017-10-14T12:45:28.135Z,952
2017-10-14T12:46:37.035Z,1316
2017-10-14T12:47:46.014Z,1260
2017-10-14T12:48:55.128Z,1212
2017-10-14T12:50:04.263Z,1244
2017-10-14T12:51:13.174Z,1200
2017-10-14T12:52:22.013Z,1116
2017-10-14T12:53:30.858Z,960
2017-10-14T12:54:39.714Z,1308
2017-10-14T12:55:48.557Z,1016
2017-10-14T12:56:57.397Z,1044
2017-10-14T12:58:06.245Z,872
2017-10-14T12:59:15.083Z,1012
2017-10-14T13:00:23.933Z,1076
2017-10-14T13:01:32.768Z,1144
2017-10-14T13:02:41.615Z,924
2017-10-14T13:03:50.458Z,952
2017-10-14T13:04:59.303Z,896
2017-10-14T13:06:08.147Z,844
2017-10-14T13:07:16.990Z,936
2017-10-14T13:08:25.838Z,924
2017-10-14T13:09:34.680Z,920
2017-10-14T13:10:43.854Z,984
2017-10-14T13:11:52.700Z,1048
2017-10-14T13:13:01.542Z,1000
2017-10-14T13:14:10.388Z,968
2017-10-14T13:15:19.230Z,864
2017-10-14T13:16:28.086Z,924
2017-10-14T13:17:36.941Z,1012
2017-10-14T13:18:45.796Z,828
2017-10-14T13:19:54.639Z,648
2017-10-14T13:21:03.487Z,556
2017-10-14T13:22:12.333Z,528
2017-10-14T13:23:21.176Z,680
2017-10-14T13:24:30.021Z,600
2017-10-14T13:25:38.863Z,696
2017-10-14T13:26:47.713Z,624
2017-10-14T13:27:56.564Z,596
2017-10-14T13:29:05.400Z,592
2017-10-14T13:30:14.253Z,600
2017-10-14T13:31:23.678Z,444
2017-10-14T13:32:32.670Z,540
2017-10-14T13:33:41.592Z,500
2017-10-14T13:34:50.590Z,516
2017-10-14T13:35:59.636Z,492
2017-10-14T13:37:08.537Z,484
2017-10-14T13:38:17.469Z,496
2017-10-14T13:39:26.464Z,612
2017-10-14T13:40:35.429Z,696
2017-10-14T13:41:44.347Z,852
2017-10-14T13:42:53.307Z,728
2017-10-14T13:44:02.296Z,904
2017-10-14T13:45:11.257Z,888
2017-10-14T13:46:20.220Z,976
2017-10-14T13:47:29.136Z,876
2017-10-14T13:48:38.019Z,900
2017-10-14T13:49:46.998Z,1012
2017-10-14T13:50:56.287Z,984
2017-10-14T13:52:05.244Z,924
2017-10-14T13:53:14.267Z,968
2017-10-14T13:54:23.374Z,832
2017-10-14T13:55:32.391Z,864
2017-10-14T13:56:41.480Z,984
2017-10-14T13:57:50.588Z,876
2017-10-14T13:58:59.652Z,740
2017-10-14T14:00:08.712Z,724
2017-10-14T14:01:17.987Z,760
2017-10-14T14:02:27.012Z,716
2017-10-14T14:03:35.963Z,632
2017-10-14T14:04:45.004Z,644
2017-10-14T14:05:53.953Z,784
2017-10-14T14:07:02.941Z,812
2017-10-14T14:08:11.957Z,684
2017-10-14T14:09:20.928Z,700
2017-10-14T14:10:29.923Z,704
2017-10-14T14:11:38.931Z,696
2017-10-14T14:12:47.879Z,680
2017-10-14T14:13:56.860Z,552
2017-10-14T14:15:05.844Z,492
2017-10-14T14:16:14.791Z,452
2017-10-14T14:17:23.781Z,484
2017-10-14T14:18:32.793Z,524
2017-10-14T14:19:41.970Z,576
2017-10-14T14:20:50.849Z,604
2017-10-14T14:21:59.761Z,544
2017-10-14T14:23:08.768Z,560
2017-10-14T14:24:17.811Z,556
2017-10-14T14:25:26.842Z,596
2017-10-14T14:26:35.750Z,624
2017-10-14T14:27:44.720Z,604
2017-10-14T14:28:53.706Z,540
2017-10-14T14:30:02.669Z,508
2017-10-14T14:31:11.590Z,584
2017-10-14T14:32:20.568Z,520
2017-10-14T14:33:29.534Z,544
2017-10-14T14:34:38.561Z,676
2017-10-14T14:35:47.492Z,644
2017-10-14T14:36:56.495Z,636
2017-10-14T14:38:05.817Z,636
2017-10-14T14:39:14.714Z,612
2017-10-14T14:40:23.855Z,640
2017-10-14T14:41:33.061Z,636
2017-10-14T14:42:41.905Z,600
2017-10-14T14:43:50.753Z,592
2017-10-14T14:44:59.594Z,616
2017-10-14T14:46:08.443Z,556
2017-10-14T14:47:17.288Z,532
2017-10-14T14:48:26.136Z,520
2017-10-14T14:49:34.984Z,568
2017-10-14T14:50:43.831Z,564
2017-10-14T14:51:52.792Z,508
2017-10-14T14:53:01.778Z,476
2017-10-14T14:54:10.740Z,448
2017-10-14T14:55:19.684Z,452
2017-10-14T14:56:28.990Z,420
2017-10-14T14:57:38.232Z,424
2017-10-14T14:58:47.281Z,440
2017-10-14T14:59:56.532Z,448
2017-10-14T15:01:05.455Z,464
2017-10-14T15:02:14.504Z,416
2017-10-14T15:03:23.704Z,404
2017-10-14T15:04:33.028Z,396
2017-10-14T15:05:42.429Z,388
2017-10-14T15:06:51.346Z,344
2017-10-14T15:08:00.538Z,336
2017-10-14T15:09:09.462Z,360
2017-10-14T15:10:18.681Z,420
2017-10-14T15:11:28.180Z,324
2017-10-14T15:12:37.780Z,368
2017-10-14T15:13:46.881Z,328
2017-10-14T15:14:55.794Z,316
2017-10-14T15:16:04.854Z,328
2017-10-14T15:17:13.781Z,296
2017-10-14T15:18:22.712Z,272
2017-10-14T15:19:31.590Z,256
2017-10-14T15:20:41.196Z,272
2017-10-14T15:21:50.173Z,276
2017-10-14T15:22:59.122Z,232
2017-10-14T15:24:08.252Z,316
2017-10-14T15:25:17.342Z,260
2017-10-14T15:26:26.382Z,280
2017-10-14T15:27:35.387Z,260
2017-10-14T15:28:44.597Z,248
2017-10-14T15:29:53.444Z,268
2017-10-14T15:31:02.448Z,208
2017-10-14T15:32:11.299Z,216
2017-10-14T15:33:20.292Z,200
2017-10-14T15:34:29.242Z,192
2017-10-14T15:35:38.090Z,204
2017-10-14T15:36:46.930Z,180
2017-10-14T15:37:55.775Z,192
2017-10-14T15:39:04.619Z,168
2017-10-14T15:40:13.464Z,176
2017-10-14T15:41:22.308Z,140
2017-10-14T15:42:31.152Z,148
2017-10-14T15:43:39.995Z,132
2017-10-14T15:44:49.516Z,124
2017-10-14T15:45:58.536Z,112
2017-10-14T15:47:07.439Z,120
2017-10-14T15:48:16.333Z,128
2017-10-14T15:49:25.339Z,132
2017-10-14T15:50:34.621Z,128
2017-10-14T15:51:44.006Z,112
2017-10-14T15:52:53.717Z,116
2017-10-14T15:54:03.169Z,100
2017-10-14T15:55:12.068Z,92
2017-10-14T15:56:21.246Z,92
2017-10-14T15:57:30.108Z,88
2017-10-14T15:58:38.970Z,84
2017-10-14T15:59:47.819Z,80
2017-10-14T16:00:56.723Z,76
2017-10-14T16:02:05.699Z,68
2017-10-14T16:03:14.544Z,64
2017-10-14T16:04:23.733Z,60
2017-10-14T16:05:32.655Z,56
2017-10-14T16:06:41.500Z,48
2017-10-14T16:07:50.682Z,44